createdAt,value
2018-12-06T00:01:15.453Z,8.13
2018-12-06T00:03:51.267Z,5.97
2018-12-06T00:06:18.933Z,8.00
2018-12-06T00:08:46.452Z,8.50
2018-12-06T00:11:13.939Z,7.73
2018-12-06T00:13:41.495Z,4.13
2018-12-06T00:16:09.565Z,5.87
2018-12-06T00:18:37.083Z,9.23
2018-12-06T00:21:04.613Z,7.03
2018-12-06T00:23:32.101Z,8.73
2018-12-06T00:25:59.619Z,5.03
2018-12-06T00:28:27.122Z,6.33
2018-12-06T00:30:54.652Z,6.77
2018-12-06T00:33:22.162Z,4.33
2018-12-06T00:35:50.036Z,5.17
2018-12-06T00:38:17.552Z,3.90
2018-12-06T00:40:45.054Z,5.10
2018-12-06T00:43:12.558Z,5.80
2018-12-06T00:45:40.642Z,6.90
2018-12-06T00:48:08.249Z,6.73
2018-12-06T00:50:35.755Z,8.37
2018-12-06T00:53:03.268Z,6.10
2018-12-06T00:55:30.807Z,9.67
2018-12-06T00:57:58.286Z,9.63
2018-12-06T01:00:26.342Z,6.47
2018-12-06T01:02:54.588Z,6.43
2018-12-06T01:05:22.098Z,5.17
2018-12-06T01:10:29.174Z,8.37
2018-12-06T01:12:57.566Z,5.10
2018-12-06T01:15:25.061Z,7.23
2018-12-06T01:17:52.568Z,5.70
2018-12-06T01:20:20.060Z,8.63
2018-12-06T01:22:48.048Z,6.17
2018-12-06T01:25:15.550Z,3.90
2018-12-06T01:27:43.099Z,9.80
2018-12-06T01:30:10.617Z,6.10
2018-12-06T01:32:38.271Z,3.43
2018-12-06T01:35:05.861Z,6.90
2018-12-06T01:37:48.109Z,5.23
2018-12-06T01:40:15.974Z,9.03
2018-12-06T01:42:43.487Z,8.43
2018-12-06T01:45:11.007Z,8.57
2018-12-06T01:47:38.524Z,9.17
2018-12-06T01:50:06.885Z,7.97
2018-12-06T01:52:34.396Z,10.33
2018-12-06T01:55:01.918Z,8.80
2018-12-06T01:57:29.431Z,4.90
2018-12-06T01:59:56.940Z,7.33
2018-12-06T02:02:24.432Z,7.93
2018-12-06T02:04:52.020Z,4.13
2018-12-06T02:07:19.528Z,6.43
2018-12-06T02:09:47.044Z,4.90
2018-12-06T02:12:14.554Z,8.90
2018-12-06T02:14:42.032Z,14.40
2018-12-06T02:17:09.538Z,7.40
2018-12-06T02:19:37.026Z,8.47
2018-12-06T02:22:04.715Z,3.97
2018-12-06T02:24:33.013Z,4.53
2018-12-06T02:27:00.578Z,8.93
2018-12-06T02:29:30.036Z,6.37
2018-12-06T02:31:57.539Z,10.37
2018-12-06T02:34:25.059Z,8.97
2018-12-06T02:36:52.570Z,9.23
2018-12-06T02:39:20.078Z,7.60
2018-12-06T02:41:47.587Z,11.57
2018-12-06T02:44:15.504Z,8.43
2018-12-06T02:46:44.528Z,7.50
2018-12-06T02:49:12.109Z,9.67
2018-12-06T02:51:39.609Z,9.47
2018-12-06T02:54:07.113Z,14.90
2018-12-06T02:56:34.621Z,11.70
2018-12-06T02:59:02.894Z,9.80
2018-12-06T03:01:30.518Z,13.27
2018-12-06T03:03:58.785Z,13.23
2018-12-06T03:06:26.261Z,12.60
2018-12-06T03:08:53.768Z,11.67
2018-12-06T03:11:21.991Z,12.27
2018-12-06T03:13:49.504Z,9.63
2018-12-06T03:16:17.420Z,9.80
2018-12-06T03:18:44.930Z,9.43
2018-12-06T03:21:12.446Z,12.53
2018-12-06T03:23:39.946Z,10.77
2018-12-06T03:26:07.440Z,9.13
2018-12-06T03:28:34.958Z,12.00
2018-12-06T03:31:02.455Z,8.93
2018-12-06T03:33:30.885Z,12.13
2018-12-06T03:35:58.547Z,9.67
2018-12-06T03:38:26.056Z,8.83
2018-12-06T03:40:54.512Z,9.97
2018-12-06T03:43:22.001Z,8.93
2018-12-06T03:45:49.506Z,9.40
2018-12-06T03:48:16.998Z,7.87
2018-12-06T03:50:44.498Z,9.80
2018-12-06T03:53:12.340Z,8.87
2018-12-06T03:55:39.857Z,9.17
2018-12-06T03:58:07.355Z,6.90
2018-12-06T04:00:35.301Z,12.00
2018-12-06T04:03:02.825Z,11.07
2018-12-06T04:08:08.683Z,9.20
2018-12-06T04:10:39.305Z,11.50
2018-12-06T04:13:06.811Z,7.37
2018-12-06T04:15:34.882Z,8.03
2018-12-06T04:18:02.374Z,8.13
2018-12-06T04:20:29.883Z,7.07
2018-12-06T04:22:57.378Z,11.83
2018-12-06T04:25:24.922Z,10.70
2018-12-06T04:27:52.422Z,10.90
2018-12-06T04:30:19.926Z,9.27
2018-12-06T04:32:48.191Z,8.07
2018-12-06T04:35:15.672Z,7.73
2018-12-06T04:37:43.198Z,8.73
2018-12-06T04:40:10.707Z,10.67
2018-12-06T04:42:38.227Z,9.20
2018-12-06T04:45:08.260Z,12.33
2018-12-06T04:47:35.768Z,7.40
2018-12-06T04:50:03.614Z,8.73
2018-12-06T04:52:31.125Z,7.83
2018-12-06T04:54:58.627Z,9.27
2018-12-06T04:57:26.452Z,9.47
2018-12-06T04:59:54.884Z,7.50
2018-12-06T05:02:23.519Z,8.90
2018-12-06T05:04:51.002Z,9.50
2018-12-06T05:07:19.712Z,9.83
2018-12-06T05:09:47.451Z,9.33
2018-12-06T05:12:14.933Z,11.97
2018-12-06T05:14:43.173Z,9.20
2018-12-06T05:17:10.672Z,11.13
2018-12-06T05:19:38.174Z,9.67
2018-12-06T05:22:06.017Z,10.63
2018-12-06T05:24:33.505Z,10.43
2018-12-06T05:27:01.882Z,10.40
2018-12-06T05:29:29.374Z,12.67
2018-12-06T05:31:56.896Z,8.60
2018-12-06T05:34:33.308Z,11.77
2018-12-06T05:39:40.894Z,8.87
2018-12-06T05:42:08.388Z,10.93
2018-12-06T05:44:35.925Z,11.00
2018-12-06T05:47:03.417Z,9.97
2018-12-06T05:49:30.919Z,8.60
2018-12-06T05:51:58.439Z,9.43
2018-12-06T05:54:26.151Z,10.50
2018-12-06T05:56:53.966Z,11.70
2018-12-06T05:59:21.454Z,11.50
2018-12-06T06:01:49.173Z,13.93
2018-12-06T06:04:16.692Z,8.10
2018-12-06T06:06:44.192Z,9.97
2018-12-06T06:09:11.724Z,12.00
2018-12-06T06:11:39.255Z,15.03
2018-12-06T06:14:06.757Z,11.70
2018-12-06T06:16:34.285Z,11.63
2018-12-06T06:19:02.506Z,13.63
2018-12-06T06:21:30.021Z,10.17
2018-12-06T06:23:57.510Z,10.40
2018-12-06T06:26:25.034Z,12.50
2018-12-06T06:28:52.575Z,20.13
2018-12-06T06:31:20.257Z,12.47
2018-12-06T06:33:48.163Z,10.67
2018-12-06T06:36:15.680Z,13.90
2018-12-06T06:38:43.197Z,13.93
2018-12-06T06:41:10.708Z,13.50
2018-12-06T06:43:38.219Z,13.30
2018-12-06T06:46:06.793Z,11.50
2018-12-06T06:48:35.126Z,15.20
2018-12-06T06:51:04.237Z,14.73
2018-12-06T06:53:31.742Z,13.83
2018-12-06T06:56:00.064Z,12.43
2018-12-06T06:58:27.825Z,17.07
2018-12-06T07:00:58.364Z,12.90
2018-12-06T07:03:25.869Z,13.60
2018-12-06T07:05:53.389Z,13.87
2018-12-06T07:08:20.946Z,13.60
2018-12-06T07:10:48.880Z,14.97
2018-12-06T07:13:16.391Z,12.13
2018-12-06T07:15:44.584Z,13.93
2018-12-06T07:18:12.892Z,9.33
2018-12-06T07:20:40.421Z,13.90
2018-12-06T07:23:08.009Z,10.23
2018-12-06T07:25:36.919Z,11.47
2018-12-06T07:28:04.451Z,12.93
2018-12-06T07:30:35.382Z,15.03
2018-12-06T07:33:02.938Z,11.13
2018-12-06T07:35:32.171Z,10.80
2018-12-06T07:38:00.656Z,10.00
2018-12-06T07:40:28.179Z,13.70
2018-12-06T07:42:55.765Z,15.50
2018-12-06T07:45:23.269Z,14.33
2018-12-06T07:47:52.917Z,12.17
2018-12-06T07:50:21.251Z,12.67
2018-12-06T07:52:50.505Z,12.40
2018-12-06T07:55:17.998Z,13.30
2018-12-06T07:57:45.556Z,9.50
2018-12-06T08:00:13.152Z,12.97
2018-12-06T08:02:41.402Z,13.83
2018-12-06T08:05:09.002Z,11.10
2018-12-06T08:07:36.486Z,12.80
2018-12-06T08:10:04.346Z,15.20
2018-12-06T08:12:31.881Z,11.77
2018-12-06T08:14:59.422Z,16.47
2018-12-06T08:17:26.934Z,11.37
2018-12-06T08:19:54.777Z,13.03
2018-12-06T08:22:26.138Z,12.43
2018-12-06T08:24:53.658Z,14.17
2018-12-06T08:27:28.228Z,14.10
2018-12-06T08:29:56.578Z,11.53
2018-12-06T08:32:24.312Z,14.57
2018-12-06T08:34:52.662Z,14.07
2018-12-06T08:40:11.518Z,11.50
2018-12-06T08:42:49.029Z,12.80
2018-12-06T08:45:39.184Z,12.70
2018-12-06T08:48:08.339Z,11.77
2018-12-06T08:50:36.584Z,11.63
2018-12-06T08:53:04.129Z,14.07
2018-12-06T08:55:31.646Z,14.73
2018-12-06T08:58:00.694Z,13.37
2018-12-06T09:00:47.342Z,14.63
2018-12-06T09:03:14.932Z,13.50
2018-12-06T09:05:43.141Z,15.07
2018-12-06T09:08:26.400Z,12.77
2018-12-06T09:10:53.916Z,16.37
2018-12-06T09:13:22.869Z,15.60
2018-12-06T09:15:50.829Z,15.63
2018-12-06T09:18:18.407Z,12.80
2018-12-06T09:20:46.805Z,12.00
2018-12-06T09:23:15.824Z,14.30
2018-12-06T09:25:44.317Z,16.93
2018-12-06T09:28:13.523Z,14.03
2018-12-06T09:30:41.041Z,14.43
2018-12-06T09:33:09.196Z,18.17
2018-12-06T09:35:36.728Z,17.40
2018-12-06T09:38:05.117Z,14.23
2018-12-06T09:40:32.735Z,14.47
2018-12-06T09:43:01.396Z,19.60
2018-12-06T09:45:29.590Z,18.53
2018-12-06T09:47:57.077Z,15.20
2018-12-06T09:50:25.121Z,15.27
2018-12-06T09:52:53.462Z,15.17
2018-12-06T09:55:20.947Z,14.50
2018-12-06T09:57:48.461Z,16.00
2018-12-06T10:00:17.801Z,17.17
2018-12-06T10:02:45.306Z,14.80
2018-12-06T10:05:13.238Z,20.43
2018-12-06T10:07:40.773Z,16.63
2018-12-06T10:10:10.497Z,17.27
2018-12-06T10:12:38.006Z,14.87
2018-12-06T10:15:06.030Z,16.63
2018-12-06T10:17:33.550Z,19.23
2018-12-06T10:20:01.044Z,20.57
2018-12-06T10:22:28.550Z,20.07
2018-12-06T10:24:56.081Z,22.60
2018-12-06T10:27:24.102Z,20.97
2018-12-06T10:29:51.654Z,19.57
2018-12-06T10:32:19.215Z,21.00
2018-12-06T10:34:53.220Z,17.13
2018-12-06T10:37:17.074Z,23.37
2018-12-06T10:39:44.574Z,17.03
2018-12-06T10:42:15.171Z,20.40
2018-12-06T10:44:44.585Z,25.87
2018-12-06T10:47:12.085Z,20.77
2018-12-06T10:49:39.613Z,18.03
2018-12-06T10:52:07.184Z,21.17
2018-12-06T10:54:36.040Z,20.50
2018-12-06T10:57:03.723Z,18.47
2018-12-06T10:59:31.219Z,19.47
2018-12-06T11:02:05.676Z,22.53
2018-12-06T11:04:35.776Z,23.13
2018-12-06T11:07:05.423Z,19.77
2018-12-06T11:09:33.006Z,22.50
2018-12-06T11:12:00.532Z,22.23
2018-12-06T11:14:31.260Z,23.73
2018-12-06T11:16:58.835Z,20.77
2018-12-06T11:19:26.387Z,21.90
2018-12-06T11:21:57.258Z,22.37
2018-12-06T11:24:24.779Z,21.57
2018-12-06T11:26:53.374Z,25.13
2018-12-06T11:29:21.902Z,26.77
2018-12-06T11:31:49.412Z,22.23
2018-12-06T11:34:17.799Z,23.23
2018-12-06T11:36:46.020Z,22.07
2018-12-06T11:39:13.547Z,22.03
2018-12-06T11:41:43.296Z,18.80
2018-12-06T11:44:10.574Z,22.07
2018-12-06T11:46:38.080Z,21.27
2018-12-06T11:49:05.568Z,21.43
2018-12-06T11:51:33.931Z,34.53
2018-12-06T11:54:01.473Z,28.67
2018-12-06T11:56:29.084Z,24.70
2018-12-06T11:58:56.561Z,24.47
2018-12-06T12:01:24.376Z,26.80
2018-12-06T12:03:53.594Z,19.73
2018-12-06T12:06:21.095Z,19.90
2018-12-06T12:08:48.635Z,20.30
2018-12-06T12:11:16.130Z,18.90
2018-12-06T12:13:44.428Z,18.97
2018-12-06T12:16:11.955Z,24.83
2018-12-06T12:18:40.279Z,20.87
2018-12-06T12:21:07.784Z,22.77
2018-12-06T12:23:35.697Z,17.43
2018-12-06T12:26:03.292Z,17.30
2018-12-06T12:28:31.115Z,18.33
2018-12-06T12:30:58.619Z,20.97
2018-12-06T12:33:26.140Z,18.73
2018-12-06T12:35:53.643Z,16.87
2018-12-06T12:38:23.277Z,19.17
2018-12-06T12:40:51.048Z,19.37
2018-12-06T12:43:18.552Z,17.53
2018-12-06T12:45:46.069Z,17.13
2018-12-06T12:48:14.420Z,21.50
2018-12-06T12:50:41.923Z,21.03
2018-12-06T12:53:10.144Z,18.43
2018-12-06T12:55:37.626Z,17.00
2018-12-06T12:58:05.130Z,18.77
2018-12-06T13:00:33.285Z,20.50
2018-12-06T13:03:00.776Z,21.07
2018-12-06T13:05:28.303Z,22.13
2018-12-06T13:08:05.456Z,20.17
2018-12-06T13:10:45.000Z,22.93
2018-12-06T13:13:12.855Z,21.83
2018-12-06T13:15:40.349Z,22.20
2018-12-06T13:18:07.857Z,23.87
2018-12-06T13:20:36.174Z,23.87
2018-12-06T13:23:03.680Z,22.00
2018-12-06T13:25:34.734Z,28.53
2018-12-06T13:28:02.235Z,25.00
2018-12-06T13:30:29.725Z,21.20
2018-12-06T13:32:57.239Z,18.43
2018-12-06T13:35:24.742Z,19.70
2018-12-06T13:37:53.168Z,15.27
2018-12-06T13:42:55.902Z,21.93
2018-12-06T13:45:25.084Z,18.33
2018-12-06T13:47:53.170Z,17.73
2018-12-06T13:50:22.318Z,13.27
2018-12-06T13:52:50.968Z,16.93
2018-12-06T13:55:18.529Z,17.60
2018-12-06T13:57:49.416Z,15.83
2018-12-06T14:00:16.958Z,18.20
2018-12-06T14:03:15.005Z,17.10
2018-12-06T14:05:42.518Z,17.13
2018-12-06T14:08:10.165Z,15.07
2018-12-06T14:10:40.500Z,14.70
2018-12-06T14:13:08.010Z,16.20
2018-12-06T14:15:35.516Z,14.83
2018-12-06T14:18:03.024Z,14.33
2018-12-06T14:20:30.887Z,12.97
2018-12-06T14:22:58.726Z,16.03
2018-12-06T14:25:33.132Z,15.10
2018-12-06T14:28:05.574Z,17.97
2018-12-06T14:30:33.701Z,15.63
2018-12-06T14:33:01.231Z,18.97
2018-12-06T14:35:30.859Z,16.40
2018-12-06T14:37:58.578Z,13.20
2018-12-06T14:40:26.647Z,12.10
2018-12-06T14:42:56.903Z,15.07
2018-12-06T14:45:25.290Z,12.47
2018-12-06T14:47:58.299Z,14.87
2018-12-06T14:50:25.862Z,11.83
2018-12-06T14:52:58.029Z,12.13
2018-12-06T14:55:25.565Z,15.23
2018-12-06T14:57:54.427Z,14.83
2018-12-06T15:00:22.756Z,13.77
2018-12-06T15:02:51.205Z,20.03
2018-12-06T15:10:48.708Z,15.90
2018-12-06T15:13:19.164Z,14.50
2018-12-06T15:15:47.792Z,11.67
2018-12-06T15:18:16.711Z,10.90
2018-12-06T15:20:51.585Z,13.77
2018-12-06T15:23:19.103Z,9.90
2018-12-06T15:25:47.426Z,12.40
2018-12-06T15:31:23.942Z,8.83
2018-12-06T15:33:51.637Z,8.57
2018-12-06T15:36:19.268Z,8.43
2018-12-06T15:38:47.411Z,8.17
2018-12-06T15:41:18.691Z,7.27
2018-12-06T15:43:47.167Z,9.57
2018-12-06T15:46:14.676Z,7.93
2018-12-06T15:48:42.196Z,13.13
2018-12-06T15:51:09.704Z,9.83
2018-12-06T15:53:37.192Z,8.40
2018-12-06T15:56:04.685Z,7.47
2018-12-06T15:58:32.455Z,7.57
2018-12-06T16:00:59.952Z,7.10
2018-12-06T16:03:27.433Z,7.87
2018-12-06T16:05:56.813Z,7.73
2018-12-06T16:08:25.140Z,10.07
2018-12-06T16:10:53.431Z,9.70
2018-12-06T16:13:20.986Z,7.93
2018-12-06T16:15:48.483Z,7.43
2018-12-06T16:18:16.641Z,6.80
2018-12-06T16:20:44.142Z,8.10
2018-12-06T16:23:14.320Z,8.63
2018-12-06T16:25:43.390Z,10.80
2018-12-06T16:28:10.877Z,10.73
2018-12-06T16:30:38.483Z,9.37
2018-12-06T16:33:05.963Z,9.07
2018-12-06T16:35:33.538Z,8.73
2018-12-06T16:38:01.052Z,8.83
2018-12-06T16:40:30.291Z,8.53
2018-12-06T16:42:59.213Z,8.00
2018-12-06T16:45:27.789Z,9.80
2018-12-06T16:47:56.509Z,9.03
2018-12-06T16:50:25.927Z,10.83
2018-12-06T16:52:54.396Z,11.10
2018-12-06T16:55:23.521Z,9.87
2018-12-06T16:57:51.026Z,11.53
2018-12-06T17:00:18.620Z,9.93
2018-12-06T17:02:48.194Z,11.60
2018-12-06T17:05:16.619Z,10.37
2018-12-06T17:07:46.047Z,10.90
2018-12-06T17:10:13.861Z,16.97
2018-12-06T17:12:41.382Z,12.13
2018-12-06T17:15:08.963Z,11.87
2018-12-06T17:17:36.449Z,11.43
2018-12-06T17:20:05.293Z,15.33
2018-12-06T17:22:33.347Z,11.13
2018-12-06T17:25:10.110Z,11.23
2018-12-06T17:27:38.935Z,13.90
2018-12-06T17:30:10.330Z,9.67
2018-12-06T17:32:37.824Z,8.70
2018-12-06T17:35:07.281Z,10.13
2018-12-06T17:37:35.500Z,12.27
2018-12-06T17:40:03.551Z,12.57
2018-12-06T17:42:31.063Z,16.17
2018-12-06T17:44:58.582Z,14.13
2018-12-06T17:47:26.106Z,19.57
2018-12-06T17:49:53.728Z,15.00
2018-12-06T17:52:22.144Z,14.80
2018-12-06T17:54:52.597Z,13.93
2018-12-06T17:57:20.164Z,16.60
2018-12-06T17:59:47.722Z,16.93
2018-12-06T18:02:16.751Z,14.77
2018-12-06T18:04:44.258Z,15.93
2018-12-06T18:07:11.786Z,15.60
2018-12-06T18:09:39.277Z,14.87
2018-12-06T18:12:08.580Z,17.20
2018-12-06T18:14:36.111Z,18.43
2018-12-06T18:17:04.240Z,13.97
2018-12-06T18:19:33.166Z,16.00
2018-12-06T18:22:01.406Z,15.47
2018-12-06T18:24:30.474Z,19.30
2018-12-06T18:26:58.321Z,14.17
2018-12-06T18:29:25.848Z,14.23
2018-12-06T18:31:53.361Z,17.30
2018-12-06T18:34:20.905Z,17.07
2018-12-06T18:36:49.390Z,15.20
2018-12-06T18:39:16.928Z,15.00
2018-12-06T18:41:45.454Z,15.23
2018-12-06T18:44:12.958Z,13.03
2018-12-06T18:46:40.503Z,13.57
2018-12-06T18:49:07.988Z,13.67
2018-12-06T18:51:35.492Z,13.43
2018-12-06T18:54:03.002Z,11.90
2018-12-06T18:56:31.219Z,14.93
2018-12-06T18:58:58.763Z,14.20
2018-12-06T19:01:26.261Z,15.27
2018-12-06T19:03:53.893Z,12.37
2018-12-06T19:06:22.353Z,15.77
2018-12-06T19:08:49.883Z,16.20
2018-12-06T19:11:17.402Z,16.17
2018-12-06T19:13:46.654Z,15.73
2018-12-06T19:16:14.158Z,14.53
2018-12-06T19:18:42.337Z,14.70
2018-12-06T19:21:10.503Z,18.10
2018-12-06T19:23:38.016Z,16.63
2018-12-06T19:26:06.586Z,14.73
2018-12-06T19:28:34.113Z,15.90
2018-12-06T19:31:02.207Z,18.13
2018-12-06T19:33:29.804Z,21.70
2018-12-06T19:35:57.327Z,16.57
2018-12-06T19:38:24.889Z,14.63
2018-12-06T19:40:52.438Z,17.03
2018-12-06T19:43:20.885Z,14.30
2018-12-06T19:45:49.616Z,13.07
2018-12-06T19:48:17.177Z,15.60
2018-12-06T19:50:45.150Z,19.93
2018-12-06T19:53:12.735Z,15.93
2018-12-06T19:55:42.113Z,16.17
2018-12-06T19:58:09.651Z,17.30
2018-12-06T20:00:37.259Z,16.97
2018-12-06T20:03:04.789Z,15.67
2018-12-06T20:05:32.313Z,16.97
2018-12-06T20:07:59.923Z,16.37
2018-12-06T20:10:27.454Z,15.30
2018-12-06T20:12:54.958Z,18.63
2018-12-06T20:15:22.650Z,15.60
2018-12-06T20:17:50.172Z,13.03
2018-12-06T20:20:23.498Z,13.27
2018-12-06T20:22:47.586Z,13.40
2018-12-06T20:25:15.103Z,14.70
2018-12-06T20:27:42.625Z,17.20
2018-12-06T20:30:10.248Z,14.10
2018-12-06T20:32:37.795Z,17.60
2018-12-06T20:35:05.601Z,17.53
2018-12-06T20:37:33.103Z,18.03
2018-12-06T20:40:00.639Z,14.33
2018-12-06T20:42:28.137Z,14.60
2018-12-06T20:44:56.305Z,14.80
2018-12-06T20:47:23.795Z,13.30
2018-12-06T20:49:51.314Z,15.60
2018-12-06T20:52:18.857Z,12.50
2018-12-06T20:54:46.356Z,13.77
2018-12-06T20:57:13.891Z,13.10
2018-12-06T20:59:41.385Z,13.47
2018-12-06T21:02:08.942Z,14.77
2018-12-06T21:04:37.329Z,12.70
2018-12-06T21:07:04.852Z,11.93
2018-12-06T21:09:32.333Z,12.47
2018-12-06T21:12:00.507Z,12.67
2018-12-06T21:14:28.060Z,12.77
2018-12-06T21:16:56.464Z,11.70
2018-12-06T21:19:24.126Z,12.53
2018-12-06T21:21:51.658Z,14.77
2018-12-06T21:24:19.171Z,11.47
2018-12-06T21:26:46.701Z,12.57
2018-12-06T21:29:16.201Z,14.07
2018-12-06T21:31:44.373Z,14.37
2018-12-06T21:34:11.916Z,12.13
2018-12-06T21:36:39.428Z,11.53
2018-12-06T21:39:07.107Z,11.27
2018-12-06T21:41:34.651Z,12.40
2018-12-06T21:44:03.055Z,13.13
2018-12-06T21:46:30.695Z,13.23
2018-12-06T21:49:03.414Z,11.80
2018-12-06T21:51:31.395Z,10.50
2018-12-06T21:54:04.012Z,14.90
2018-12-06T21:56:37.050Z,14.17
2018-12-06T21:59:05.662Z,9.40
2018-12-06T22:01:33.193Z,13.47
2018-12-06T22:04:00.714Z,9.43
2018-12-06T22:06:28.224Z,11.43
2018-12-06T22:08:55.719Z,12.33
2018-12-06T22:11:23.214Z,9.60
2018-12-06T22:13:50.699Z,11.23
2018-12-06T22:16:19.564Z,11.50
2018-12-06T22:18:47.494Z,12.13
2018-12-06T22:21:15.015Z,13.37
2018-12-06T22:23:42.760Z,12.80
2018-12-06T22:26:11.116Z,12.47
2018-12-06T22:28:38.606Z,13.00
2018-12-06T22:31:06.215Z,8.93
2018-12-06T22:33:33.894Z,10.43
2018-12-06T22:36:01.404Z,11.30
2018-12-06T22:38:34.116Z,13.03
2018-12-06T22:40:59.979Z,11.83
2018-12-06T22:43:29.665Z,10.67
2018-12-06T22:45:58.037Z,13.10
2018-12-06T22:48:25.541Z,10.47
2018-12-06T22:50:53.109Z,9.70
2018-12-06T22:53:20.721Z,9.40
2018-12-06T22:55:48.236Z,10.13
2018-12-06T22:58:16.948Z,9.20
2018-12-06T23:00:47.426Z,9.07
2018-12-06T23:03:14.910Z,10.67
2018-12-06T23:05:42.437Z,9.10
2018-12-06T23:08:09.930Z,8.93
2018-12-06T23:10:37.435Z,9.20
2018-12-06T23:13:04.954Z,8.37
2018-12-06T23:15:32.489Z,6.47
2018-12-06T23:18:00.006Z,7.57
2018-12-06T23:20:27.529Z,6.27
2018-12-06T23:22:55.059Z,6.93
2018-12-06T23:25:23.033Z,6.97
2018-12-06T23:27:50.568Z,8.77
2018-12-06T23:30:18.073Z,7.07
2018-12-06T23:32:45.618Z,7.00
2018-12-06T23:35:13.121Z,5.60
2018-12-06T23:37:40.860Z,6.93
2018-12-06T23:40:08.444Z,5.37
2018-12-06T23:42:35.924Z,4.93
2018-12-06T23:45:03.893Z,6.00
2018-12-06T23:47:31.403Z,5.17
2018-12-06T23:49:58.897Z,6.33
2018-12-06T23:52:26.399Z,4.33
2018-12-06T23:54:54.706Z,5.50
2018-12-06T23:57:22.248Z,5.00
2018-12-06T23:59:49.744Z,7.93
